Time;durP1;ratioP1;P1;durP2;ratioP2;P2;SDS_P1;SDS_P2;PMS_P1;PMS_P2;Temp;Humidity;BMP_temperature;BMP_pressure;BME280_temperature;BME280_humidity;BME280_pressure;Samples;Min_cycle;Max_cycle;Signal;HPM_P1;HPM_P2
2021/12/13 00:01:05;;;;;;;178.30;52.03;;;;;;;;;;4887011;29;20040;-76
2021/12/13 00:03:50;;;;;;;160.80;52.15;;;;;;;;;;4886896;29;20468;-82
2021/12/13 00:06:19;;;;;;;138.88;47.88;;;;;;;;;;4870469;29;20059;-89
2021/12/13 00:08:55;;;;;;;139.88;49.30;;;;;;;;;;4882200;29;20043;-79
2021/12/13 00:11:35;;;;;;;184.80;57.22;;;;;;;;;;4890787;29;20037;-90
2021/12/13 00:14:08;;;;;;;189.63;56.90;;;;;;;;;;4905398;29;20063;-76
2021/12/13 00:16:36;;;;;;;171.65;54.63;;;;;;;;;;4891135;29;20057;-77
2021/12/13 00:19:05;;;;;;;211.05;59.90;;;;;;;;;;4881177;29;20065;-85
2021/12/13 00:21:36;;;;;;;177.68;59.28;;;;;;;;;;4865264;29;20073;-85
2021/12/13 00:24:04;;;;;;;188.43;57.28;;;;;;;;;;4865929;29;20025;-80
2021/12/13 00:27:00;;;;;;;132.32;47.05;;;;;;;;;;4896534;29;20056;-84
2021/12/13 00:29:33;;;;;;;172.40;52.80;;;;;;;;;;4916079;29;20055;-81
2021/12/13 00:32:04;;;;;;;141.43;49.50;;;;;;;;;;4914577;29;20088;-83
2021/12/13 00:34:41;;;;;;;136.15;47.05;;;;;;;;;;4906122;29;20402;-79
2021/12/13 00:37:11;;;;;;;126.20;47.05;;;;;;;;;;4921523;29;20032;-81
2021/12/13 00:40:04;;;;;;;157.85;51.55;;;;;;;;;;4911318;29;20029;-88
2021/12/13 00:42:36;;;;;;;161.40;53.45;;;;;;;;;;4907987;29;20044;-84
2021/12/13 00:45:06;;;;;;;166.32;55.35;;;;;;;;;;4906590;29;20493;-78
2021/12/13 00:47:33;;;;;;;133.98;48.33;;;;;;;;;;4910790;29;20024;-79
2021/12/13 00:50:04;;;;;;;158.95;51.53;;;;;;;;;;4914167;29;20036;-86
2021/12/13 00:52:32;;;;;;;126.25;49.15;;;;;;;;;;4918198;29;20024;-81
2021/12/13 00:54:59;;;;;;;149.80;48.58;;;;;;;;;;4920380;29;20386;-85
2021/12/13 00:57:31;;;;;;;171.15;53.70;;;;;;;;;;4905297;29;20119;-81
2021/12/13 01:00:03;;;;;;;148.88;48.95;;;;;;;;;;4910237;29;20031;-82
2021/12/13 01:02:58;;;;;;;140.10;41.67;;;;;;;;;;4914878;29;20024;-79
2021/12/13 01:05:24;;;;;;;;;;;;;;;;;;4920038;29;20064;-80
2021/12/13 01:07:55;;;;;;;163.05;53.35;;;;;;;;;;4918823;29;19920;-81
2021/12/13 01:10:40;;;;;;;158.85;52.17;;;;;;;;;;4915079;29;20083;-80
2021/12/13 01:13:25;;;;;;;184.32;57.00;;;;;;;;;;4913122;29;20064;-87
2021/12/13 01:16:15;;;;;;;143.05;51.28;;;;;;;;;;4909292;29;20104;-84
2021/12/13 01:19:24;;;;;;;140.18;53.13;;;;;;;;;;4909593;29;20040;-81
2021/12/13 01:21:56;;;;;;;190.88;56.83;;;;;;;;;;4918181;29;20450;-80
2021/12/13 01:24:52;;;;;;;173.95;52.60;;;;;;;;;;4923654;29;20051;-78
2021/12/13 01:27:09;;;;;;;162.00;52.63;;;;;;;;;;4915902;29;20363;-83
2021/12/13 01:29:37;;;;;;;159.43;51.45;;;;;;;;;;4906595;29;20390;-78
2021/12/13 01:32:08;;;;;;;163.48;49.75;;;;;;;;;;4911233;29;20099;-80
2021/12/13 01:34:37;;;;;;;160.65;50.80;;;;;;;;;;4911392;29;20040;-78
2021/12/13 01:37:12;;;;;;;130.88;49.30;;;;;;;;;;4917003;29;20032;-79
2021/12/13 01:39:41;;;;;;;141.95;47.85;;;;;;;;;;4918138;29;20028;-77
2021/12/13 01:42:12;;;;;;;140.65;50.20;;;;;;;;;;4923189;29;20024;-81
2021/12/13 01:44:41;;;;;;;151.80;49.53;;;;;;;;;;4912383;29;20096;-80
2021/12/13 01:47:11;;;;;;;154.05;48.80;;;;;;;;;;4914600;29;20379;-79
2021/12/13 01:49:40;;;;;;;163.95;50.85;;;;;;;;;;4914076;29;20071;-80
2021/12/13 01:52:17;;;;;;;153.30;50.30;;;;;;;;;;4923436;29;20078;-79
2021/12/13 01:54:44;;;;;;;161.95;49.65;;;;;;;;;;4915259;29;20115;-77
2021/12/13 02:02:14;;;;;;;136.05;46.85;;;;;;;;;;4921362;29;20055;-82
2021/12/13 02:04:41;;;;;;;127.53;45.40;;;;;;;;;;4920146;29;20082;-78
2021/12/13 02:07:08;;;;;;;161.02;47.85;;;;;;;;;;4924446;29;20028;-79
2021/12/13 02:09:36;;;;;;;165.60;49.00;;;;;;;;;;4924220;29;20068;-78
2021/12/13 02:12:05;;;;;;;187.52;51.90;;;;;;;;;;4911294;29;20025;-79
2021/12/13 02:14:33;;;;;;;133.93;46.75;;;;;;;;;;4907433;29;20052;-79
2021/12/13 02:17:10;;;;;;;118.07;44.47;;;;;;;;;;4915493;29;20072;-78
2021/12/13 02:19:40;;;;;;;156.05;46.92;;;;;;;;;;4921802;29;20067;-79
2021/12/13 02:22:06;;;;;;;124.97;46.38;;;;;;;;;;4920824;29;20062;-76
2021/12/13 02:24:32;;;;;;;146.40;52.33;;;;;;;;;;4919700;29;20382;-80
2021/12/13 02:26:59;;;;;;;155.02;52.17;;;;;;;;;;4911041;29;20480;-77
2021/12/13 02:29:34;;;;;;;140.48;49.63;;;;;;;;;;4924888;29;20063;-80
2021/12/13 02:32:01;;;;;;;138.38;48.45;;;;;;;;;;4918816;29;20477;-79
2021/12/13 02:34:33;;;;;;;171.20;55.53;;;;;;;;;;4906933;29;20498;-78
2021/12/13 02:36:59;;;;;;;133.77;49.13;;;;;;;;;;4911044;29;20087;-78
2021/12/13 02:39:28;;;;;;;140.77;49.13;;;;;;;;;;4908716;29;20047;-77
2021/12/13 02:41:55;;;;;;;143.38;47.78;;;;;;;;;;4914624;29;20568;-76
2021/12/13 02:44:23;;;;;;;140.95;49.65;;;;;;;;;;4913145;29;20039;-77
2021/12/13 02:46:50;;;;;;;158.40;52.92;;;;;;;;;;4914005;29;20122;-77
2021/12/13 02:49:17;;;;;;;127.30;47.88;;;;;;;;;;4911900;29;20026;-76
2021/12/13 02:51:43;;;;;;;167.48;50.20;;;;;;;;;;4915535;29;20036;-79
2021/12/13 02:54:19;;;;;;;178.55;51.53;;;;;;;;;;4911690;29;20028;-81
2021/12/13 02:56:48;;;;;;;150.32;48.10;;;;;;;;;;4917749;29;20040;-76
2021/12/13 02:59:15;;;;;;;129.95;46.63;;;;;;;;;;4921374;29;20646;-77
2021/12/13 03:02:01;;;;;;;156.38;51.13;;;;;;;;;;4920590;29;20059;-79
2021/12/13 03:04:28;;;;;;;161.77;49.70;;;;;;;;;;4908770;29;20390;-78
2021/12/13 03:06:57;;;;;;;156.93;52.40;;;;;;;;;;4916366;29;20039;-84
2021/12/13 03:09:25;;;;;;;144.95;46.28;;;;;;;;;;4905903;29;20123;-76
2021/12/13 03:11:53;;;;;;;183.00;54.40;;;;;;;;;;4921329;29;20490;-76
2021/12/13 03:14:22;;;;;;;167.23;50.58;;;;;;;;;;4920207;29;20518;-79
2021/12/13 03:16:51;;;;;;;177.23;51.88;;;;;;;;;;4912490;29;20422;-78
2021/12/13 03:19:36;;;;;;;147.00;48.72;;;;;;;;;;4925892;29;20052;-79
2021/12/13 03:22:20;;;;;;;154.77;48.50;;;;;;;;;;4922137;29;20028;-79
2021/12/13 03:25:05;;;;;;;157.55;48.67;;;;;;;;;;4911225;29;20641;-85
2021/12/13 03:27:50;;;;;;;152.10;46.95;;;;;;;;;;4903006;29;20067;-82
2021/12/13 03:30:19;;;;;;;142.18;47.10;;;;;;;;;;4922369;29;20072;-80
2021/12/13 03:33:12;;;;;;;128.32;43.80;;;;;;;;;;4914584;29;20393;-83
2021/12/13 03:35:57;;;;;;;149.85;50.10;;;;;;;;;;4919649;29;20055;-80
2021/12/13 03:38:29;;;;;;;134.93;45.38;;;;;;;;;;4919372;29;20050;-79
2021/12/13 03:41:00;;;;;;;150.52;45.08;;;;;;;;;;4906273;29;20115;-85
2021/12/13 03:43:29;;;;;;;148.75;44.97;;;;;;;;;;4920612;29;20509;-78
2021/12/13 03:45:57;;;;;;;121.95;42.42;;;;;;;;;;4913831;29;20044;-78
2021/12/13 03:48:26;;;;;;;153.07;45.08;;;;;;;;;;4920158;29;20035;-79
2021/12/13 03:50:54;;;;;;;126.95;44.05;;;;;;;;;;4916225;29;20040;-78
2021/12/13 03:53:21;;;;;;;141.13;44.00;;;;;;;;;;4902259;29;20024;-80
2021/12/13 03:55:49;;;;;;;131.60;41.90;;;;;;;;;;4904499;29;20116;-85
2021/12/13 03:58:17;;;;;;;115.00;40.60;;;;;;;;;;4903275;29;20031;-80
2021/12/13 04:00:47;;;;;;;138.98;44.20;;;;;;;;;;4919874;29;20032;-78
2021/12/13 04:03:16;;;;;;;118.78;42.05;;;;;;;;;;4918568;29;20047;-87
2021/12/13 04:05:42;;;;;;;125.13;41.25;;;;;;;;;;4917595;29;20036;-78
2021/12/13 04:08:11;;;;;;;124.93;42.00;;;;;;;;;;4906111;29;20083;-86
2021/12/13 04:10:42;;;;;;;132.00;40.97;;;;;;;;;;4920212;29;20047;-83
2021/12/13 04:13:13;;;;;;;138.13;40.63;;;;;;;;;;4906883;29;20104;-85
2021/12/13 04:18:41;;;;;;;127.40;42.03;;;;;;;;;;4917682;29;20039;-88
2021/12/13 04:21:08;;;;;;;103.78;40.10;;;;;;;;;;4922225;29;20024;-86
2021/12/13 04:23:37;;;;;;;113.88;39.28;;;;;;;;;;4920621;29;20135;-85
2021/12/13 04:26:04;;;;;;;136.75;42.50;;;;;;;;;;4912099;29;20043;-82
2021/12/13 04:28:37;;;;;;;97.05;37.70;;;;;;;;;;4915975;29;20048;-79
2021/12/13 04:31:12;;;;;;;113.68;40.08;;;;;;;;;;4888432;29;20028;-83
2021/12/13 04:33:43;;;;;;;128.57;40.67;;;;;;;;;;4908260;29;20036;-83
2021/12/13 04:36:28;;;;;;;104.30;37.75;;;;;;;;;;4906764;29;20367;-77
2021/12/13 04:39:03;;;;;;;122.85;40.17;;;;;;;;;;4929208;29;20031;-82
2021/12/13 04:41:38;;;;;;;101.97;38.63;;;;;;;;;;4914676;29;20028;-78
2021/12/13 04:44:09;;;;;;;111.80;39.92;;;;;;;;;;4914672;29;20104;-77
2021/12/13 04:46:37;;;;;;;110.80;39.35;;;;;;;;;;4907505;29;20043;-79
2021/12/13 04:49:08;;;;;;;108.13;38.47;;;;;;;;;;4915350;29;20103;-80
2021/12/13 04:51:41;;;;;;;103.15;37.40;;;;;;;;;;4919977;29;20035;-78
2021/12/13 04:54:07;;;;;;;146.25;43.25;;;;;;;;;;4918516;29;20028;-78
2021/12/13 04:56:33;;;;;;;132.48;43.72;;;;;;;;;;4906838;29;20077;-84
2021/12/13 04:59:01;;;;;;;122.13;40.95;;;;;;;;;;4918620;29;20039;-80
2021/12/13 05:01:28;;;;;;;134.75;43.47;;;;;;;;;;4916666;29;20020;-81
2021/12/13 05:03:57;;;;;;;184.95;48.83;;;;;;;;;;4919678;29;20052;-81
2021/12/13 05:06:27;;;;;;;123.45;41.58;;;;;;;;;;4913733;29;20050;-80
2021/12/13 05:08:56;;;;;;;166.32;48.35;;;;;;;;;;4920337;29;20039;-77
2021/12/13 05:11:22;;;;;;;119.50;43.08;;;;;;;;;;4914947;29;20063;-77
2021/12/13 05:13:51;;;;;;;164.80;46.92;;;;;;;;;;4905942;29;20111;-79
2021/12/13 05:16:19;;;;;;;126.35;42.03;;;;;;;;;;4906305;29;20088;-80
2021/12/13 05:18:47;;;;;;;181.50;48.08;;;;;;;;;;4924240;29;20060;-78
2021/12/13 05:21:15;;;;;;;142.15;46.25;;;;;;;;;;4916635;29;20163;-85
2021/12/13 05:24:08;;;;;;;177.52;49.65;;;;;;;;;;4917284;29;20180;-80
2021/12/13 05:26:39;;;;;;;181.52;51.30;;;;;;;;;;4911964;29;20059;-76
2021/12/13 05:29:07;;;;;;;169.05;52.88;;;;;;;;;;4920236;29;20524;-76
2021/12/13 05:31:33;;;;;;;262.30;58.38;;;;;;;;;;4923295;29;20032;-76
2021/12/13 05:34:01;;;;;;;146.07;46.60;;;;;;;;;;4922404;29;20486;-78
2021/12/13 05:36:29;;;;;;;102.00;39.85;;;;;;;;;;4922500;29;20202;-77
2021/12/13 05:39:07;;;;;;;218.38;47.90;;;;;;;;;;4931150;29;20035;-81
2021/12/13 05:41:37;;;;;;;162.85;44.63;;;;;;;;;;4931945;29;20124;-85
2021/12/13 05:44:11;;;;;;;131.10;42.20;;;;;;;;;;4934946;29;20036;-80
2021/12/13 05:46:49;;;;;;;217.70;47.58;;;;;;;;;;4931750;29;20041;-80
2021/12/13 05:49:30;;;;;;;198.05;47.90;;;;;;;;;;4943267;29;20124;-77
2021/12/13 05:52:04;;;;;;;181.02;47.38;;;;;;;;;;4931860;29;20035;-81
2021/12/13 05:54:43;;;;;;;186.25;45.80;;;;;;;;;;4932032;29;20036;-81
2021/12/13 05:57:18;;;;;;;228.68;47.63;;;;;;;;;;4936819;29;20032;-79
2021/12/13 05:59:56;;;;;;;198.43;45.15;;;;;;;;;;4922252;29;20039;-80
2021/12/13 06:02:41;;;;;;;213.48;48.00;;;;;;;;;;4932721;29;20115;-76
2021/12/13 06:05:09;;;;;;;172.07;46.72;;;;;;;;;;4925862;29;20032;-76
2021/12/13 06:07:41;;;;;;;174.65;51.28;;;;;;;;;;4922853;29;20043;-78
2021/12/13 06:10:13;;;;;;;155.57;50.28;;;;;;;;;;4927747;29;20028;-79
2021/12/13 06:13:07;;;;;;;151.35;53.17;;;;;;;;;;4926540;29;20065;-78
2021/12/13 06:15:35;;;;;;;208.40;64.80;;;;;;;;;;4884556;29;20053;-76
2021/12/13 06:18:03;;;;;;;205.45;61.35;;;;;;;;;;4883399;29;20064;-75
2021/12/13 06:20:33;;;;;;;246.57;68.75;;;;;;;;;;4882153;29;20044;-75
2021/12/13 06:23:06;;;;;;;186.05;57.40;;;;;;;;;;4883885;29;20068;-76
2021/12/13 06:25:32;;;;;;;214.65;81.63;;;;;;;;;;4884052;29;20045;-75
2021/12/13 06:28:02;;;;;;;230.80;95.38;;;;;;;;;;4882784;29;20029;-87
2021/12/13 06:30:29;;;;;;;233.07;68.57;;;;;;;;;;4883042;29;20037;-75
2021/12/13 06:33:09;;;;;;;232.60;77.80;;;;;;;;;;4890990;29;20505;-76
2021/12/13 06:35:51;;;;;;;215.32;62.75;;;;;;;;;;4880579;29;20047;-73
2021/12/13 06:38:17;;;;;;;187.98;61.35;;;;;;;;;;4891955;29;20013;-74
2021/12/13 06:40:47;;;;;;;166.43;59.63;;;;;;;;;;4895794;29;20037;-74
2021/12/13 06:43:25;;;;;;;174.82;62.05;;;;;;;;;;4897730;29;20025;-74
2021/12/13 06:45:54;;;;;;;198.25;65.40;;;;;;;;;;4896294;29;20049;-75
2021/12/13 06:48:32;;;;;;;171.48;53.53;;;;;;;;;;4893584;29;20029;-74
2021/12/13 06:51:12;;;;;;;184.75;57.03;;;;;;;;;;4890894;29;20084;-85
2021/12/13 06:53:38;;;;;;;173.43;53.63;;;;;;;;;;4962785;29;20024;-89
2021/12/13 06:56:19;;;;;;;168.63;55.35;;;;;;;;;;4921693;29;20045;-83
2021/12/13 06:58:49;;;;;;;171.57;52.50;;;;;;;;;;4930694;29;20039;-88
2021/12/13 07:01:18;;;;;;;154.90;50.10;;;;;;;;;;4931324;29;20051;-86
2021/12/13 07:03:58;;;;;;;177.18;54.25;;;;;;;;;;4928883;29;20100;-82
2021/12/13 07:06:25;;;;;;;152.55;53.40;;;;;;;;;;4926899;29;20055;-76
2021/12/13 07:09:09;;;;;;;154.00;52.35;;;;;;;;;;4923742;29;20016;-81
2021/12/13 07:11:48;;;;;;;175.15;56.03;;;;;;;;;;4938093;29;20040;-90
2021/12/13 07:14:52;;;;;;;141.63;48.75;;;;;;;;;;4898185;29;20055;-87
2021/12/13 07:17:20;;;;;;;;;;;;;;;;;;4895692;29;20037;-80
2021/12/13 07:20:01;;;;;;;165.90;50.63;;;;;;;;;;4900402;29;19892;-86
2021/12/13 07:22:42;;;;;;;163.18;50.95;;;;;;;;;;4824245;29;20037;-86
2021/12/13 07:25:20;;;;;;;174.57;53.67;;;;;;;;;;4864582;29;20048;-83
2021/12/13 07:28:11;;;;;;;166.00;54.90;;;;;;;;;;4889488;29;20040;-87
2021/12/13 07:30:38;;;;;;;166.23;54.50;;;;;;;;;;4888602;29;20068;-79
2021/12/13 07:33:07;;;;;;;208.65;59.78;;;;;;;;;;4897462;29;20048;-84
2021/12/13 07:35:33;;;;;;;158.43;52.50;;;;;;;;;;4884183;29;20041;-76
2021/12/13 07:38:07;;;;;;;167.02;58.38;;;;;;;;;;4866527;29;20181;-75
2021/12/13 07:40:53;;;;;;;190.38;60.15;;;;;;;;;;4880303;29;20123;-81
2021/12/13 07:43:19;;;;;;;139.15;54.95;;;;;;;;;;4850556;29;20155;-75
2021/12/13 07:45:48;;;;;;;164.80;58.67;;;;;;;;;;4871629;29;20057;-75
2021/12/13 07:48:16;;;;;;;152.50;54.55;;;;;;;;;;4888630;29;20542;-77
2021/12/13 07:51:12;;;;;;;143.93;53.30;;;;;;;;;;4882462;29;20052;-82
2021/12/13 07:53:52;;;;;;;244.95;73.85;;;;;;;;;;4811177;29;20050;-74
2021/12/13 07:56:39;;;;;;;200.98;60.72;;;;;;;;;;4801808;29;20050;-74
2021/12/13 07:59:05;;;;;;;147.18;53.08;;;;;;;;;;4807781;29;20088;-76
2021/12/13 08:01:34;;;;;;;133.95;54.30;;;;;;;;;;4812032;29;20043;-73
2021/12/13 08:04:07;;;;;;;185.75;59.85;;;;;;;;;;4807170;29;20042;-75
2021/12/13 08:06:35;;;;;;;222.93;68.57;;;;;;;;;;4808722;29;20053;-73
2021/12/13 08:09:04;;;;;;;237.13;64.70;;;;;;;;;;4806411;29;20379;-83
2021/12/13 08:11:38;;;;;;;168.73;71.78;;;;;;;;;;4805027;29;20044;-78
2021/12/13 08:14:05;;;;;;;226.38;84.30;;;;;;;;;;4802994;29;20043;-78
2021/12/13 08:16:39;;;;;;;231.73;75.25;;;;;;;;;;4826378;29;20073;-78
2021/12/13 08:19:17;;;;;;;180.43;63.97;;;;;;;;;;4816578;29;20057;-77
2021/12/13 08:21:47;;;;;;;207.13;70.20;;;;;;;;;;4849075;29;20042;-77
2021/12/13 08:24:20;;;;;;;163.23;64.32;;;;;;;;;;4846029;29;20075;-74
2021/12/13 08:26:46;;;;;;;214.63;69.10;;;;;;;;;;4855233;29;20045;-74
2021/12/13 08:29:18;;;;;;;158.20;61.20;;;;;;;;;;4852920;29;20443;-74
2021/12/13 08:31:45;;;;;;;162.10;59.83;;;;;;;;;;4921005;29;20024;-75
2021/12/13 08:34:16;;;;;;;189.52;64.72;;;;;;;;;;4916246;29;20032;-74
2021/12/13 08:36:44;;;;;;;177.00;65.03;;;;;;;;;;4924307;29;20055;-75
2021/12/13 08:39:18;;;;;;;243.20;80.22;;;;;;;;;;4922859;29;20415;-73
2021/12/13 08:41:45;;;;;;;161.68;55.22;;;;;;;;;;4919341;29;20039;-74
2021/12/13 08:44:11;;;;;;;146.55;57.28;;;;;;;;;;4919184;29;20024;-75
2021/12/13 08:46:55;;;;;;;150.77;53.42;;;;;;;;;;4921575;29;20040;-76
2021/12/13 08:49:22;;;;;;;151.43;57.63;;;;;;;;;;4924234;29;20546;-72
2021/12/13 08:51:55;;;;;;;179.60;58.38;;;;;;;;;;4916900;29;20470;-74
2021/12/13 08:54:22;;;;;;;148.98;55.60;;;;;;;;;;4922390;29;20062;-73
2021/12/13 08:56:53;;;;;;;132.88;52.28;;;;;;;;;;4932467;29;20089;-73
2021/12/13 08:59:25;;;;;;;148.57;57.20;;;;;;;;;;4928748;29;20439;-78
2021/12/13 09:01:54;;;;;;;125.25;49.08;;;;;;;;;;4922047;29;20035;-75
2021/12/13 09:04:33;;;;;;;114.32;46.20;;;;;;;;;;4926026;29;20032;-73
2021/12/13 09:07:01;;;;;;;118.70;48.42;;;;;;;;;;4932620;29;20574;-76
2021/12/13 09:09:47;;;;;;;132.00;49.28;;;;;;;;;;4933616;29;20039;-71
2021/12/13 09:12:15;;;;;;;99.55;43.38;;;;;;;;;;4862860;29;20046;-72
2021/12/13 09:14:50;;;;;;;99.07;46.65;;;;;;;;;;4862807;29;20041;-76
2021/12/13 09:17:21;;;;;;;103.53;45.47;;;;;;;;;;4881455;29;20164;-74
2021/12/13 09:20:07;;;;;;;94.45;41.10;;;;;;;;;;4879468;29;20033;-74
2021/12/13 09:22:38;;;;;;;102.03;43.35;;;;;;;;;;4858314;29;20037;-74
2021/12/13 09:25:07;;;;;;;90.47;42.13;;;;;;;;;;4864662;29;20037;-73
2021/12/13 09:27:39;;;;;;;84.28;38.25;;;;;;;;;;4860910;29;20033;-76
2021/12/13 09:30:08;;;;;;;66.53;36.13;;;;;;;;;;4861095;29;20093;-75
2021/12/13 09:36:14;;;;;;;77.70;36.15;;;;;;;;;;4829627;29;20042;-78
2021/12/13 09:39:24;;;;;;;88.07;40.40;;;;;;;;;;4810663;29;20031;-79
2021/12/13 09:42:03;;;;;;;80.53;37.88;;;;;;;;;;4780584;29;20031;-81
2021/12/13 09:44:33;;;;;;;86.90;40.30;;;;;;;;;;4821853;29;20121;-76
2021/12/13 09:47:21;;;;;;;77.07;39.67;;;;;;;;;;4830304;29;20074;-75
2021/12/13 09:50:34;;;;;;;88.03;41.60;;;;;;;;;;4840522;29;20015;-80
2021/12/13 09:53:26;;;;;;;79.82;41.28;;;;;;;;;;4816333;29;20061;-79
2021/12/13 09:55:56;;;;;;;78.15;40.95;;;;;;;;;;4805401;29;20097;-77
2021/12/13 09:58:36;;;;;;;80.28;42.13;;;;;;;;;;4816143;29;20023;-78
2021/12/13 10:01:12;;;;;;;94.22;46.13;;;;;;;;;;4816376;29;20046;-76
2021/12/13 10:03:59;;;;;;;92.00;45.00;;;;;;;;;;4808839;29;20123;-75
2021/12/13 10:06:48;;;;;;;80.43;45.97;;;;;;;;;;4820710;29;20062;-78
2021/12/13 10:09:16;;;;;;;79.20;42.30;;;;;;;;;;4825602;29;20047;-78
2021/12/13 10:11:46;;;;;;;90.22;56.20;;;;;;;;;;4827231;29;20042;-79
2021/12/13 10:14:16;;;;;;;88.20;53.58;;;;;;;;;;4888126;29;20060;-78
2021/12/13 10:16:43;;;;;;;86.05;50.10;;;;;;;;;;4899524;29;20072;-77
2021/12/13 10:19:21;;;;;;;90.80;52.65;;;;;;;;;;4939266;29;20027;-75
2021/12/13 10:22:24;;;;;;;88.68;48.92;;;;;;;;;;4913985;29;20047;-76
2021/12/13 10:24:55;;;;;;;76.32;44.75;;;;;;;;;;4908733;29;20047;-76
2021/12/13 10:27:21;;;;;;;70.13;41.83;;;;;;;;;;4910610;29;20049;-75
2021/12/13 10:29:58;;;;;;;72.70;41.47;;;;;;;;;;4907404;29;20103;-75
2021/12/13 10:32:45;;;;;;;71.25;40.22;;;;;;;;;;4904925;29;20085;-75
2021/12/13 10:35:15;;;;;;;76.85;42.15;;;;;;;;;;4895723;29;20067;-75
2021/12/13 10:37:44;;;;;;;79.13;44.35;;;;;;;;;;4898352;29;20033;-75
2021/12/13 10:40:13;;;;;;;77.95;43.70;;;;;;;;;;4900160;29;20068;-75
2021/12/13 10:42:50;;;;;;;80.90;45.50;;;;;;;;;;4893839;29;20096;-77
2021/12/13 10:45:18;;;;;;;80.45;45.88;;;;;;;;;;4898607;29;20135;-74
2021/12/13 10:47:47;;;;;;;79.38;45.45;;;;;;;;;;4899688;29;20055;-75
2021/12/13 10:50:39;;;;;;;98.80;49.63;;;;;;;;;;4901316;29;20084;-75
2021/12/13 10:53:06;;;;;;;88.90;52.15;;;;;;;;;;4896849;29;20051;-74
2021/12/13 10:55:37;;;;;;;99.15;56.58;;;;;;;;;;4899512;29;20051;-77
2021/12/13 10:58:04;;;;;;;88.38;51.70;;;;;;;;;;4906771;29;20048;-76
2021/12/13 11:00:38;;;;;;;91.78;52.22;;;;;;;;;;4926865;29;20024;-77
2021/12/13 11:03:07;;;;;;;97.60;54.28;;;;;;;;;;4918614;29;20028;-75
2021/12/13 11:05:33;;;;;;;83.22;47.80;;;;;;;;;;4930390;29;20533;-76
2021/12/13 11:08:00;;;;;;;77.80;45.00;;;;;;;;;;4928576;29;20099;-74
2021/12/13 11:10:34;;;;;;;87.28;50.88;;;;;;;;;;4920173;29;20034;-75
2021/12/13 11:13:01;;;;;;;78.65;45.92;;;;;;;;;;4916825;29;20044;-75
2021/12/13 11:15:29;;;;;;;72.32;43.63;;;;;;;;;;4921523;29;20043;-75
2021/12/13 11:17:56;;;;;;;62.38;39.97;;;;;;;;;;4919207;29;20371;-77
2021/12/13 11:20:24;;;;;;;62.58;40.33;;;;;;;;;;4921060;29;20047;-76
2021/12/13 11:22:51;;;;;;;58.25;37.17;;;;;;;;;;4925405;29;20628;-75
2021/12/13 11:25:23;;;;;;;54.33;33.83;;;;;;;;;;4920594;29;20063;-75
2021/12/13 11:27:49;;;;;;;51.80;34.28;;;;;;;;;;4915731;29;20032;-76
2021/12/13 11:30:20;;;;;;;56.53;36.85;;;;;;;;;;4922677;29;20091;-75
2021/12/13 11:32:58;;;;;;;53.88;33.40;;;;;;;;;;4915812;29;20107;-78
2021/12/13 11:35:38;;;;;;;50.25;32.83;;;;;;;;;;4919395;29;20517;-76
2021/12/13 11:38:26;;;;;;;54.78;34.15;;;;;;;;;;4922954;29;20042;-77
2021/12/13 11:41:10;;;;;;;50.42;33.13;;;;;;;;;;4870896;29;20037;-75
2021/12/13 11:43:55;;;;;;;53.40;35.97;;;;;;;;;;4881130;29;20073;-76
2021/12/13 11:46:41;;;;;;;61.92;38.25;;;;;;;;;;4869783;29;20050;-76
2021/12/13 11:54:55;;;;;;;58.78;38.45;;;;;;;;;;4681147;26;20083;-79
2021/12/13 11:57:39;;;;;;;61.70;39.47;;;;;;;;;;4941407;29;20036;-76
2021/12/13 12:06:03;;;;;;;74.55;46.92;;;;;;;;;;5772130;23;20608;-74
2021/12/13 12:08:32;;;;;;;59.83;40.28;;;;;;;;;;4907508;29;20029;-75
2021/12/13 12:11:08;;;;;;;84.63;52.95;;;;;;;;;;4926279;29;20058;-73
2021/12/13 12:14:01;;;;;;;72.95;49.70;;;;;;;;;;4924342;29;20032;-74
2021/12/13 12:19:26;;;;;;;79.53;51.42;;;;;;;;;;5607044;23;19926;-78
2021/12/13 12:22:20;;;;;;;77.85;48.05;;;;;;;;;;4929295;29;20571;-77
2021/12/13 12:25:18;;;;;;;66.43;44.15;;;;;;;;;;4948022;29;20039;-77
2021/12/13 12:28:00;;;;;;;107.00;66.03;;;;;;;;;;4960143;29;20038;-78
2021/12/13 12:33:53;;;;;;;74.30;48.20;;;;;;;;;;4882867;29;20147;-79
2021/12/13 12:36:21;;;;;;;56.53;37.33;;;;;;;;;;4868635;29;20026;-81
2021/12/13 12:42:07;;;;;;;52.83;38.50;;;;;;;;;;5055537;23;20064;-78
2021/12/13 12:44:42;;;;;;;53.88;35.45;;;;;;;;;;4935820;29;20043;-78
2021/12/13 12:47:35;;;;;;;56.40;35.65;;;;;;;;;;4950328;29;20039;-78
2021/12/13 12:50:29;;;;;;;52.08;34.42;;;;;;;;;;4890321;29;20037;-78
2021/12/13 12:53:29;;;;;;;53.80;35.35;;;;;;;;;;4896107;29;20053;-78
2021/12/13 13:07:33;;;;;;;64.43;39.80;;;;;;;;;;5351738;23;21216;-78
2021/12/13 13:10:46;;;;;;;55.08;35.72;;;;;;;;;;4953298;28;20055;-76
2021/12/13 13:13:11;;;;;;;58.72;36.88;;;;;;;;;;4933728;29;20144;-77
2021/12/13 13:15:43;;;;;;;60.00;38.28;;;;;;;;;;4920427;29;20036;-78
2021/12/13 13:18:29;;;;;;;56.80;36.80;;;;;;;;;;4937992;29;20063;-75
2021/12/13 13:24:02;;;;;;;57.42;38.63;;;;;;;;;;5086876;23;20107;-78
2021/12/13 13:26:39;;;;;;;63.40;40.95;;;;;;;;;;4895976;29;20078;-76
2021/12/13 13:32:26;;;;;;;55.00;35.20;;;;;;;;;;4925100;29;20065;-75
2021/12/13 13:34:55;;;;;;;56.55;36.25;;;;;;;;;;4913811;29;20072;-74
2021/12/13 13:37:22;;;;;;;54.67;35.22;;;;;;;;;;4923471;29;20036;-75
2021/12/13 13:39:53;;;;;;;57.80;38.63;;;;;;;;;;4922956;29;20028;-76
2021/12/13 13:42:22;;;;;;;60.60;40.60;;;;;;;;;;4907866;29;20036;-76
2021/12/13 13:45:09;;;;;;;70.45;45.83;;;;;;;;;;4921444;29;20028;-77
2021/12/13 13:47:52;;;;;;;64.18;42.47;;;;;;;;;;4926673;29;20020;-79
2021/12/13 13:50:28;;;;;;;;;;;;;;;;;;4941642;28;20049;-79
2021/12/13 13:53:26;;;;;;;;;;;;;;;;;;4936791;29;19936;-79
2021/12/13 13:56:10;;;;;;;86.97;53.05;;;;;;;;;;4928433;29;19899;-78
2021/12/13 13:59:12;;;;;;;120.45;68.20;;;;;;;;;;5523525;23;20026;-80
2021/12/13 14:01:40;;;;;;;95.88;63.25;;;;;;;;;;4952290;28;20055;-79
2021/12/13 14:07:39;;;;;;;78.15;51.28;;;;;;;;;;5091786;23;20518;-79
2021/12/13 14:10:37;;;;;;;77.90;50.60;;;;;;;;;;4916352;29;20020;-79
2021/12/13 14:13:12;;;;;;;74.80;46.63;;;;;;;;;;4939458;29;20041;-80
2021/12/13 14:15:47;;;;;;;75.77;45.67;;;;;;;;;;4922074;29;20518;-78
2021/12/13 14:18:14;;;;;;;75.97;45.97;;;;;;;;;;4892162;29;20060;-74
2021/12/13 14:20:44;;;;;;;67.72;44.35;;;;;;;;;;4907788;29;20029;-74
2021/12/13 14:23:13;;;;;;;79.57;51.03;;;;;;;;;;4906693;29;20025;-75
2021/12/13 14:25:41;;;;;;;95.53;58.10;;;;;;;;;;4909768;29;20035;-74
2021/12/13 14:28:08;;;;;;;111.43;67.30;;;;;;;;;;4906049;29;20092;-75
2021/12/13 14:30:34;;;;;;;99.13;61.78;;;;;;;;;;4915792;29;20487;-74
2021/12/13 14:33:01;;;;;;;75.00;48.53;;;;;;;;;;4907320;29;20073;-78
2021/12/13 14:35:30;;;;;;;81.78;53.83;;;;;;;;;;4908070;29;20032;-74
2021/12/13 14:43:38;;;;;;;73.95;46.78;;;;;;;;;;5673036;23;20108;-78
2021/12/13 14:46:12;;;;;;;66.85;44.63;;;;;;;;;;4894086;29;20108;-77
2021/12/13 14:48:55;;;;;;;72.32;45.75;;;;;;;;;;4902021;29;20036;-78
2021/12/13 14:51:41;;;;;;;63.00;39.23;;;;;;;;;;4905743;29;20089;-79
2021/12/13 14:54:10;;;;;;;115.57;65.55;;;;;;;;;;4896153;29;20786;-78
2021/12/13 14:56:49;;;;;;;120.55;67.13;;;;;;;;;;4902500;29;20049;-79
2021/12/13 14:59:28;;;;;;;154.07;89.45;;;;;;;;;;4908712;29;20113;-77
2021/12/13 15:07:08;;;;;;;75.68;50.35;;;;;;;;;;4985833;23;20060;-75
2021/12/13 15:12:16;;;;;;;76.20;43.15;;;;;;;;;;5693113;23;20076;-75
2021/12/13 15:14:45;;;;;;;71.18;41.75;;;;;;;;;;4927187;29;20051;-75
2021/12/13 15:17:24;;;;;;;82.60;46.95;;;;;;;;;;4927341;29;20088;-75
2021/12/13 15:19:52;;;;;;;83.60;47.40;;;;;;;;;;4925225;29;20004;-77
2021/12/13 15:22:20;;;;;;;95.20;52.47;;;;;;;;;;4918557;28;20039;-78
2021/12/13 15:25:16;;;;;;;106.68;56.63;;;;;;;;;;4955691;29;20020;-79
2021/12/13 15:43:41;;;;;;;107.70;60.67;;;;;;;;;;5012894;23;20055;-77
2021/12/13 15:46:33;;;;;;;116.97;61.53;;;;;;;;;;4934143;29;20520;-77
2021/12/13 15:51:48;;;;;;;120.85;67.10;;;;;;;;;;4937726;29;20446;-76
2021/12/13 15:54:16;;;;;;;140.80;78.00;;;;;;;;;;4910858;29;20123;-76
2021/12/13 15:56:43;;;;;;;143.23;79.13;;;;;;;;;;4914311;29;20036;-75
2021/12/13 15:59:13;;;;;;;157.75;85.80;;;;;;;;;;4922902;29;20510;-76
2021/12/13 16:01:47;;;;;;;163.23;92.25;;;;;;;;;;4924450;29;20051;-76
2021/12/13 16:04:15;;;;;;;164.00;85.78;;;;;;;;;;4924254;29;20535;-77
2021/12/13 16:06:45;;;;;;;161.05;84.80;;;;;;;;;;4939721;29;20067;-76
2021/12/13 16:09:31;;;;;;;156.00;87.47;;;;;;;;;;4945001;28;20030;-80
2021/12/13 16:12:07;;;;;;;167.55;95.43;;;;;;;;;;4949767;29;20035;-80
2021/12/13 16:14:51;;;;;;;146.98;83.35;;;;;;;;;;4945795;29;20094;-78
2021/12/13 16:17:31;;;;;;;147.18;85.18;;;;;;;;;;4945131;29;20090;-78